Time;durP1;ratioP1;P1;durP2;ratioP2;P2;SDS_P1;SDS_P2;PMS_P1;PMS_P2;Temp;Humidity;BMP_temperature;BMP_pressure;BME280_temperature;BME280_humidity;BME280_pressure;Samples;Min_cycle;Max_cycle;Signal;HPM_P1;HPM_P2
2023/04/24 00:01:22;;;;;;;1.00;0.90;;;9.80;99.90;;;;;;5043111;28;20291;-72
2023/04/24 00:03:49;;;;;;;2.00;0.90;;;9.80;99.90;;;;;;5043422;28;20267;-71
2023/04/24 00:06:16;;;;;;;2.55;1.20;;;9.80;99.90;;;;;;5052029;28;20221;-71
2023/04/24 00:08:43;;;;;;;2.95;1.05;;;9.80;99.90;;;;;;5043541;28;20206;-71
2023/04/24 00:11:10;;;;;;;1.10;0.98;;;9.90;99.90;;;;;;5052494;28;20209;-71
2023/04/24 00:13:36;;;;;;;1.30;1.10;;;9.90;99.90;;;;;;5052595;28;20225;-71
2023/04/24 00:16:04;;;;;;;1.90;0.90;;;9.90;99.90;;;;;;5052777;28;20209;-71
2023/04/24 00:18:32;;;;;;;1.20;1.10;;;9.90;99.90;;;;;;5052686;28;20599;-71
2023/04/24 00:20:58;;;;;;;1.23;0.80;;;9.90;99.90;;;;;;5052164;28;20204;-71
2023/04/24 00:23:25;;;;;;;1.30;1.20;;;9.90;99.90;;;;;;5051911;28;20220;-71
2023/04/24 00:25:52;;;;;;;1.00;0.90;;;9.90;99.90;;;;;;5052059;28;20204;-71
2023/04/24 00:28:18;;;;;;;1.35;1.02;;;9.90;99.90;;;;;;5051102;28;20258;-71
2023/04/24 00:30:45;;;;;;;1.15;1.05;;;9.90;99.90;;;;;;5051233;28;20205;-71
2023/04/24 00:33:12;;;;;;;2.08;1.27;;;9.90;99.90;;;;;;5050931;28;20649;-71
2023/04/24 00:35:40;;;;;;;2.28;1.20;;;9.90;99.90;;;;;;5050861;28;20201;-71
2023/04/24 00:38:07;;;;;;;0.80;0.75;;;10.00;99.90;;;;;;5051166;28;20224;-71
2023/04/24 00:40:33;;;;;;;1.20;1.00;;;10.00;99.90;;;;;;5042980;28;20205;-71
2023/04/24 00:43:00;;;;;;;2.10;1.00;;;10.00;99.90;;;;;;5051140;28;20809;-71
2023/04/24 00:45:27;;;;;;;1.65;0.98;;;10.10;99.90;;;;;;5051454;28;20201;-71
2023/04/24 00:47:54;;;;;;;1.35;1.20;;;10.10;99.90;;;;;;5039598;28;20194;-71
2023/04/24 00:50:22;;;;;;;1.40;1.00;;;10.10;99.90;;;;;;5125850;22;20633;-71
2023/04/24 00:52:50;;;;;;;1.45;1.00;;;10.10;99.90;;;;;;5061778;28;20292;-71
2023/04/24 00:55:17;;;;;;;1.38;1.05;;;10.10;99.90;;;;;;5031118;28;20542;-71
2023/04/24 00:57:44;;;;;;;1.17;1.08;;;10.10;99.90;;;;;;5030665;28;20209;-71
2023/04/24 01:00:12;;;;;;;1.98;0.90;;;10.10;99.90;;;;;;5030925;28;20675;-71
2023/04/24 01:02:43;;;;;;;1.55;0.98;;;10.10;99.90;;;;;;5038205;28;20311;-71
2023/04/24 01:05:11;;;;;;;1.10;0.90;;;10.10;99.90;;;;;;5031025;28;20206;-71
2023/04/24 01:07:39;;;;;;;1.20;0.90;;;10.10;99.90;;;;;;5046679;28;20213;-71
2023/04/24 01:10:08;;;;;;;1.52;0.93;;;10.10;99.90;;;;;;5035990;28;20563;-71
2023/04/24 01:12:35;;;;;;;0.80;0.80;;;10.20;99.90;;;;;;5040532;28;20628;-71
2023/04/24 01:15:03;;;;;;;1.05;0.95;;;10.10;99.90;;;;;;5039255;28;20209;-71
2023/04/24 01:17:31;;;;;;;1.00;0.90;;;10.20;99.90;;;;;;5048688;28;20197;-71
2023/04/24 01:19:57;;;;;;;1.48;1.08;;;10.10;99.90;;;;;;5050665;28;20303;-71
2023/04/24 01:22:25;;;;;;;2.22;1.20;;;10.20;99.90;;;;;;5049866;28;20686;-71
2023/04/24 01:24:52;;;;;;;6.22;1.85;;;10.10;99.90;;;;;;5050347;28;20197;-71
2023/04/24 01:27:20;;;;;;;1.10;0.90;;;10.10;99.90;;;;;;5050081;28;20197;-71
2023/04/24 01:29:49;;;;;;;1.55;0.90;;;10.20;99.90;;;;;;5049853;28;20611;-71
2023/04/24 01:32:16;;;;;;;1.08;0.80;;;10.20;99.90;;;;;;5049513;28;20201;-71
2023/04/24 01:34:44;;;;;;;1.10;0.90;;;10.20;99.90;;;;;;5049760;28;20211;-71
2023/04/24 01:37:10;;;;;;;1.08;0.80;;;10.20;99.90;;;;;;5049617;28;20571;-71
2023/04/24 01:39:38;;;;;;;1.63;1.10;;;10.10;99.90;;;;;;5049622;28;20565;-71
2023/04/24 01:42:06;;;;;;;1.35;1.10;;;10.10;99.90;;;;;;5049582;28;20201;-71
2023/04/24 01:44:34;;;;;;;1.00;0.90;;;10.00;99.90;;;;;;5049062;28;20271;-71
2023/04/24 01:47:01;;;;;;;1.45;1.13;;;10.00;99.90;;;;;;5049923;28;20687;-72
2023/04/24 01:49:28;;;;;;;0.90;0.80;;;10.00;99.90;;;;;;5049367;28;20200;-71
2023/04/24 01:51:55;;;;;;;2.13;0.93;;;9.90;99.90;;;;;;5049084;28;20569;-72
2023/04/24 01:54:21;;;;;;;2.65;1.00;;;9.90;99.90;;;;;;5049508;28;20224;-72
2023/04/24 01:56:49;;;;;;;1.45;0.98;;;9.90;99.90;;;;;;5049369;28;20204;-71
2023/04/24 01:59:17;;;;;;;1.00;0.90;;;9.90;99.90;;;;;;5049484;28;20220;-72
2023/04/24 02:01:44;;;;;;;0.98;0.88;;;10.00;99.90;;;;;;5049001;28;20675;-71
2023/04/24 02:04:11;;;;;;;1.00;0.90;;;9.90;99.90;;;;;;5049672;28;20231;-71
2023/04/24 02:06:37;;;;;;;0.95;0.82;;;10.00;99.90;;;;;;5049056;28;20224;-71
2023/04/24 02:09:04;;;;;;;1.20;1.00;;;9.90;99.90;;;;;;5049629;28;20204;-71
2023/04/24 02:11:31;;;;;;;1.00;0.90;;;10.00;99.90;;;;;;5048997;28;20280;-71
2023/04/24 02:13:59;;;;;;;1.10;0.80;;;10.00;99.90;;;;;;5041519;28;20648;-71
2023/04/24 02:16:26;;;;;;;1.45;1.17;;;9.90;99.90;;;;;;5049418;28;20208;-71
2023/04/24 02:18:53;;;;;;;0.90;0.80;;;9.90;99.90;;;;;;5048945;28;20221;-71
2023/04/24 02:21:19;;;;;;;1.20;1.08;;;9.90;99.90;;;;;;5049070;28;20211;-71
2023/04/24 02:23:46;;;;;;;3.10;0.80;;;9.90;99.90;;;;;;5049136;28;20224;-71
2023/04/24 02:26:13;;;;;;;0.90;0.82;;;9.80;99.90;;;;;;5049516;28;20570;-71
2023/04/24 02:28:40;;;;;;;0.80;0.80;;;9.80;99.90;;;;;;5048820;28;20671;-71
2023/04/24 02:31:08;;;;;;;1.08;0.98;;;9.80;99.90;;;;;;5044578;28;20202;-71
2023/04/24 02:33:35;;;;;;;1.38;0.98;;;9.80;99.90;;;;;;5045637;28;20248;-71
2023/04/24 02:36:02;;;;;;;1.45;1.08;;;9.80;99.90;;;;;;5049302;28;20212;-72
2023/04/24 02:38:29;;;;;;;1.90;1.35;;;9.80;99.90;;;;;;5048962;28;20621;-72
2023/04/24 02:40:56;;;;;;;1.10;1.00;;;9.80;99.90;;;;;;5048823;28;20213;-71
2023/04/24 02:43:22;;;;;;;3.05;1.10;;;9.80;99.90;;;;;;5048944;28;20228;-71
2023/04/24 02:45:49;;;;;;;1.00;0.90;;;9.80;99.90;;;;;;5049313;28;20197;-72
2023/04/24 02:48:18;;;;;;;1.40;0.90;;;9.90;99.90;;;;;;5043286;28;20205;-71
2023/04/24 02:50:46;;;;;;;1.30;1.20;;;9.90;99.90;;;;;;5038409;28;20236;-71
2023/04/24 02:53:12;;;;;;;1.45;1.08;;;9.90;99.90;;;;;;5049281;28;20224;-72
2023/04/24 02:55:39;;;;;;;1.33;1.00;;;9.90;99.90;;;;;;5048713;28;20201;-71
2023/04/24 02:58:06;;;;;;;2.15;1.20;;;9.90;99.90;;;;;;5051342;28;20208;-71
2023/04/24 03:00:32;;;;;;;1.42;0.98;;;9.90;99.90;;;;;;5052805;28;20614;-72
2023/04/24 03:02:59;;;;;;;1.10;0.80;;;9.90;99.90;;;;;;5052494;28;20228;-71
2023/04/24 03:05:27;;;;;;;1.52;1.08;;;9.90;99.90;;;;;;5052779;28;20259;-71
2023/04/24 03:07:54;;;;;;;1.10;0.90;;;9.90;99.90;;;;;;5052924;28;20703;-72
2023/04/24 03:10:22;;;;;;;1.50;1.13;;;9.90;99.90;;;;;;5052958;28;20232;-72
2023/04/24 03:12:49;;;;;;;1.63;0.95;;;9.80;99.90;;;;;;5052338;28;20232;-72
2023/04/24 03:15:16;;;;;;;2.05;1.00;;;9.80;99.90;;;;;;5053061;28;20205;-70
2023/04/24 03:17:43;;;;;;;1.27;1.17;;;9.70;99.90;;;;;;5052270;28;20610;-72
2023/04/24 03:20:10;;;;;;;1.23;1.00;;;9.60;99.90;;;;;;5052422;28;20224;-71
2023/04/24 03:22:38;;;;;;;1.27;0.93;;;9.50;99.90;;;;;;5051850;28;20229;-72
2023/04/24 03:25:08;;;;;;;0.80;0.80;;;9.50;99.90;;;;;;5040676;28;20202;-72
2023/04/24 03:27:34;;;;;;;1.10;1.00;;;9.50;99.90;;;;;;5048778;28;20205;-71
2023/04/24 03:30:01;;;;;;;1.23;1.02;;;9.40;99.90;;;;;;5044741;28;20574;-72
2023/04/24 03:32:28;;;;;;;1.67;0.80;;;9.40;99.90;;;;;;5044644;28;20201;-72
2023/04/24 03:34:55;;;;;;;2.78;1.10;;;9.40;99.90;;;;;;5050274;28;20197;-71
2023/04/24 03:37:21;;;;;;;2.22;0.90;;;9.40;99.90;;;;;;5047358;28;20201;-72
2023/04/24 03:39:49;;;;;;;1.38;0.90;;;9.40;99.90;;;;;;5046559;28;20299;-71
2023/04/24 03:42:16;;;;;;;1.10;1.00;;;9.40;99.90;;;;;;5047110;28;20201;-72
2023/04/24 03:44:43;;;;;;;1.90;1.10;;;9.40;99.90;;;;;;5046213;28;20283;-71
2023/04/24 03:47:09;;;;;;;1.00;0.90;;;9.40;99.90;;;;;;5047275;28;20216;-71
2023/04/24 03:49:36;;;;;;;1.45;0.80;;;9.30;99.90;;;;;;5044128;28;20193;-71
2023/04/24 03:52:03;;;;;;;1.23;0.80;;;9.30;99.90;;;;;;5049560;28;20208;-71
2023/04/24 03:54:30;;;;;;;1.42;1.33;;;9.20;99.90;;;;;;5035894;28;20221;-71
2023/04/24 03:56:58;;;;;;;1.35;0.88;;;9.20;99.90;;;;;;5037117;28;20649;-71
2023/04/24 03:59:25;;;;;;;1.00;0.90;;;9.10;99.90;;;;;;5046608;28;20714;-71
2023/04/24 04:01:51;;;;;;;0.80;0.70;;;9.10;99.90;;;;;;5050780;28;20212;-71
2023/04/24 04:04:18;;;;;;;3.92;1.08;;;9.10;99.90;;;;;;5048070;28;20274;-71
2023/04/24 04:06:46;;;;;;;1.70;0.90;;;9.10;99.90;;;;;;5044484;28;20226;-71
2023/04/24 04:09:12;;;;;;;1.48;1.20;;;9.10;99.90;;;;;;5043615;28;20190;-71
2023/04/24 04:11:39;;;;;;;2.08;1.40;;;9.10;99.90;;;;;;5047325;28;20224;-71
2023/04/24 04:14:07;;;;;;;0.80;0.80;;;9.20;99.90;;;;;;5046737;28;20225;-71
2023/04/24 04:16:36;;;;;;;1.52;1.42;;;9.10;99.90;;;;;;5042840;28;20461;-70
2023/04/24 04:19:03;;;;;;;1.27;1.02;;;9.20;99.90;;;;;;5046094;28;20201;-70
2023/04/24 04:21:30;;;;;;;1.80;0.98;;;9.20;99.90;;;;;;5045983;28;20198;-71
2023/04/24 04:23:57;;;;;;;0.90;0.77;;;9.30;99.90;;;;;;5042548;28;20217;-69
2023/04/24 04:26:25;;;;;;;1.38;0.80;;;9.30;99.90;;;;;;5051408;28;20288;-70
2023/04/24 04:28:52;;;;;;;1.00;0.90;;;9.40;99.90;;;;;;5049070;28;20201;-70
2023/04/24 04:31:20;;;;;;;1.48;0.90;;;9.50;99.90;;;;;;5042006;28;20227;-71
2023/04/24 04:33:47;;;;;;;1.33;1.00;;;9.50;99.90;;;;;;5048379;28;20229;-71
2023/04/24 04:36:14;;;;;;;1.20;1.00;;;9.50;99.90;;;;;;5048848;28;20208;-70
2023/04/24 04:38:42;;;;;;;3.05;1.10;;;9.40;99.90;;;;;;5048266;28;20216;-71
2023/04/24 04:41:09;;;;;;;2.95;1.40;;;9.30;99.90;;;;;;5048137;28;20223;-69
2023/04/24 04:43:36;;;;;;;1.33;1.10;;;9.20;99.90;;;;;;5048446;28;20331;-69
2023/04/24 04:46:03;;;;;;;2.58;1.15;;;9.20;99.90;;;;;;5050893;28;20648;-70
2023/04/24 04:48:32;;;;;;;1.30;1.20;;;9.10;99.90;;;;;;5050972;28;20201;-70
2023/04/24 04:50:59;;;;;;;1.30;1.00;;;9.00;99.90;;;;;;5050621;28;20200;-71
2023/04/24 04:53:25;;;;;;;1.20;1.10;;;9.00;99.90;;;;;;5051033;28;20237;-71
2023/04/24 04:55:52;;;;;;;2.33;1.20;;;9.00;99.90;;;;;;5050718;28;20201;-72
2023/04/24 04:58:19;;;;;;;1.30;1.20;;;8.90;99.90;;;;;;5050968;28;20197;-71
2023/04/24 05:00:46;;;;;;;1.00;0.90;;;8.90;99.90;;;;;;5050689;28;20303;-71
2023/04/24 05:03:13;;;;;;;2.58;1.40;;;8.90;99.90;;;;;;5051092;28;20220;-72
2023/04/24 05:05:41;;;;;;;1.55;1.35;;;8.90;99.90;;;;;;5050809;28;20201;-72
2023/04/24 05:08:08;;;;;;;1.80;1.27;;;9.00;99.90;;;;;;5039112;28;20229;-72
2023/04/24 05:10:36;;;;;;;2.75;1.25;;;9.00;99.90;;;;;;5038886;28;20226;-72
2023/04/24 05:13:03;;;;;;;1.17;1.00;;;9.00;99.90;;;;;;5041552;28;20585;-72
2023/04/24 05:15:30;;;;;;;1.30;1.20;;;9.00;99.90;;;;;;5043973;28;20657;-72
2023/04/24 05:17:57;;;;;;;2.45;1.38;;;9.00;99.90;;;;;;5038733;28;20198;-72
2023/04/24 05:20:24;;;;;;;1.10;1.00;;;9.00;99.90;;;;;;5035682;28;20221;-72
2023/04/24 05:22:52;;;;;;;1.15;1.05;;;9.00;99.90;;;;;;5033417;28;20724;-72
2023/04/24 05:25:19;;;;;;;1.50;1.40;;;8.90;99.90;;;;;;5050642;28;20205;-71
2023/04/24 05:27:46;;;;;;;1.23;1.00;;;9.00;99.90;;;;;;5050493;28;20199;-72
2023/04/24 05:30:13;;;;;;;1.70;1.45;;;9.00;99.90;;;;;;5050402;28;20196;-71
2023/04/24 05:32:40;;;;;;;2.15;1.45;;;9.00;99.90;;;;;;5049676;28;20256;-72
2023/04/24 05:35:08;;;;;;;3.20;1.40;;;9.00;99.90;;;;;;5046095;28;20251;-71
2023/04/24 05:37:34;;;;;;;1.52;1.20;;;9.00;99.90;;;;;;5043335;28;20561;-71
2023/04/24 05:40:04;;;;;;;1.30;1.20;;;9.10;99.90;;;;;;5048851;28;20599;-71
2023/04/24 05:42:31;;;;;;;2.88;1.40;;;9.20;99.90;;;;;;5049852;28;20219;-71
2023/04/24 05:44:57;;;;;;;2.17;1.55;;;9.20;99.90;;;;;;5031981;28;20197;-71
2023/04/24 05:47:25;;;;;;;2.97;2.17;;;9.20;99.90;;;;;;5043943;28;20576;-71
2023/04/24 05:49:52;;;;;;;2.28;1.35;;;9.20;99.90;;;;;;5050300;28;20197;-71
2023/04/24 05:52:19;;;;;;;1.58;1.45;;;9.20;99.90;;;;;;5050363;28;20208;-71
2023/04/24 05:54:46;;;;;;;1.38;1.15;;;9.20;99.90;;;;;;5050434;28;20578;-71
2023/04/24 05:57:14;;;;;;;1.70;1.55;;;9.20;99.90;;;;;;5046651;28;20205;-71
2023/04/24 05:59:41;;;;;;;2.08;1.77;;;9.20;99.90;;;;;;5030337;28;20248;-71
2023/04/24 06:02:08;;;;;;;1.67;1.20;;;9.10;99.90;;;;;;5041471;28;20224;-71
2023/04/24 06:04:35;;;;;;;1.50;1.40;;;9.10;99.90;;;;;;5050308;28;20766;-71
2023/04/24 06:07:02;;;;;;;1.75;1.20;;;9.10;99.90;;;;;;5049923;28;20205;-71
2023/04/24 06:09:29;;;;;;;1.45;1.30;;;9.10;99.90;;;;;;5049609;28;20817;-71
2023/04/24 06:11:56;;;;;;;1.30;1.20;;;9.00;99.90;;;;;;5049474;28;20224;-71
2023/04/24 06:14:24;;;;;;;1.90;1.77;;;9.10;99.90;;;;;;5049700;28;20217;-71
2023/04/24 06:16:51;;;;;;;1.55;1.45;;;9.10;99.90;;;;;;5049729;28;20197;-71
2023/04/24 06:19:18;;;;;;;2.47;1.67;;;9.00;99.90;;;;;;5049881;28;20224;-71
2023/04/24 06:21:44;;;;;;;1.70;1.60;;;9.00;99.90;;;;;;5049273;28;20212;-71
2023/04/24 06:24:11;;;;;;;3.17;1.70;;;9.10;99.90;;;;;;5041373;28;20233;-71
2023/04/24 06:26:38;;;;;;;1.83;1.60;;;9.10;99.90;;;;;;5041423;28;20248;-71
2023/04/24 06:29:05;;;;;;;1.42;1.33;;;9.20;99.90;;;;;;5041297;28;20209;-71
2023/04/24 06:31:36;;;;;;;2.20;1.85;;;9.30;99.90;;;;;;5036384;28;20205;-71
2023/04/24 06:34:03;;;;;;;8.32;1.60;;;9.40;99.90;;;;;;5052373;28;20604;-71
2023/04/24 06:36:30;;;;;;;2.30;1.55;;;9.50;99.90;;;;;;5053447;28;20206;-71
2023/04/24 06:38:57;;;;;;;1.70;1.23;;;9.60;99.90;;;;;;5043597;28;20684;-71
2023/04/24 06:41:24;;;;;;;2.38;1.85;;;9.80;99.90;;;;;;5038098;28;20220;-71
2023/04/24 06:43:50;;;;;;;2.03;1.50;;;9.80;99.90;;;;;;5052606;28;20225;-71
2023/04/24 06:46:17;;;;;;;2.70;1.67;;;10.00;99.90;;;;;;5033466;28;20205;-72
2023/04/24 06:48:45;;;;;;;5.40;1.60;;;10.20;99.90;;;;;;5033894;28;20197;-72
2023/04/24 06:51:12;;;;;;;2.97;1.55;;;10.40;99.90;;;;;;5114249;22;20221;-68
2023/04/24 06:53:38;;;;;;;1.83;1.67;;;10.60;99.90;;;;;;5053287;28;20221;-69
2023/04/24 06:56:05;;;;;;;1.42;1.10;;;10.90;99.90;;;;;;5053095;28;20714;-68
2023/04/24 06:58:32;;;;;;;2.00;1.52;;;11.20;99.90;;;;;;5053137;28;20206;-68
2023/04/24 07:00:58;;;;;;;2.40;1.70;;;11.20;99.90;;;;;;5052538;28;20236;-68
2023/04/24 07:03:25;;;;;;;2.53;1.48;;;11.30;99.90;;;;;;5053436;28;20759;-70
2023/04/24 07:05:53;;;;;;;2.55;1.55;;;11.50;99.90;;;;;;5053276;28;20225;-69
2023/04/24 07:08:21;;;;;;;1.40;1.23;;;11.90;99.90;;;;;;5033271;28;20672;-68
2023/04/24 07:10:49;;;;;;;1.25;1.15;;;12.20;99.90;;;;;;5033562;28;20197;-69
2023/04/24 07:13:15;;;;;;;1.40;1.30;;;12.20;99.90;;;;;;5033178;28;20217;-69
2023/04/24 07:15:42;;;;;;;1.80;1.55;;;11.90;99.90;;;;;;5033603;28;20464;-68
2023/04/24 07:18:09;;;;;;;1.85;1.35;;;11.70;99.90;;;;;;5032917;28;20201;-69
2023/04/24 07:20:36;;;;;;;5.15;1.90;;;11.40;99.90;;;;;;5033382;28;20272;-68
2023/04/24 07:23:04;;;;;;;3.38;1.30;;;11.00;99.90;;;;;;5032308;28;20229;-68
2023/04/24 07:25:31;;;;;;;1.75;1.10;;;10.90;99.90;;;;;;5032973;28;20197;-69
2023/04/24 07:27:58;;;;;;;1.17;1.08;;;10.80;99.90;;;;;;5032703;28;20194;-69
2023/04/24 07:30:24;;;;;;;1.45;1.30;;;10.60;99.90;;;;;;5032764;28;20198;-69
2023/04/24 07:32:51;;;;;;;1.33;1.23;;;10.60;99.90;;;;;;5028717;28;20222;-68
2023/04/24 07:35:19;;;;;;;1.30;1.20;;;10.60;99.90;;;;;;5034558;28;21012;-69
2023/04/24 07:37:46;;;;;;;1.98;1.20;;;10.60;99.90;;;;;;5032462;28;20289;-69
2023/04/24 07:40:14;;;;;;;1.80;1.20;;;10.70;99.90;;;;;;5032159;28;20209;-69
2023/04/24 07:42:41;;;;;;;1.55;1.20;;;10.90;99.90;;;;;;5031908;28;20693;-68
2023/04/24 07:45:09;;;;;;;1.40;1.25;;;11.20;99.90;;;;;;5034304;28;20206;-69
2023/04/24 07:47:38;;;;;;;1.65;1.50;;;11.40;99.90;;;;;;5051258;28;20201;-68
2023/04/24 07:50:06;;;;;;;1.67;1.17;;;11.60;99.90;;;;;;5040656;28;20197;-68
2023/04/24 07:52:33;;;;;;;1.70;1.50;;;11.80;99.90;;;;;;5031179;28;20704;-68
2023/04/24 07:55:01;;;;;;;2.28;1.48;;;12.00;99.90;;;;;;5031140;28;20743;-68
2023/04/24 07:57:30;;;;;;;1.98;1.65;;;12.20;99.90;;;;;;5031342;28;20283;-69
2023/04/24 07:59:57;;;;;;;1.10;1.00;;;12.40;99.90;;;;;;5031211;28;20289;-68
2023/04/24 08:02:26;;;;;;;1.42;1.30;;;12.40;99.90;;;;;;5030352;28;20265;-69
2023/04/24 08:04:54;;;;;;;1.40;1.30;;;12.20;99.90;;;;;;5031212;28;20201;-68
2023/04/24 08:07:21;;;;;;;2.92;1.30;;;12.30;99.90;;;;;;5031097;28;20289;-69
2023/04/24 08:09:48;;;;;;;1.75;1.65;;;12.30;99.90;;;;;;5031066;28;20201;-69
2023/04/24 08:12:16;;;;;;;1.20;1.10;;;12.30;99.90;;;;;;5041733;28;20201;-69
2023/04/24 08:14:44;;;;;;;1.60;1.33;;;12.10;99.90;;;;;;5051233;28;20197;-69
2023/04/24 08:17:11;;;;;;;1.85;1.50;;;12.00;99.90;;;;;;5050171;28;20209;-69
2023/04/24 08:19:38;;;;;;;1.63;1.40;;;12.00;99.90;;;;;;5050909;28;20251;-69
2023/04/24 08:22:05;;;;;;;2.63;1.60;;;11.80;99.90;;;;;;5041919;28;20263;-69
2023/04/24 08:24:32;;;;;;;1.95;1.30;;;11.80;99.90;;;;;;5050622;28;20950;-69
2023/04/24 08:26:59;;;;;;;3.78;1.30;;;11.90;99.90;;;;;;5036316;28;21248;-70
2023/04/24 08:29:26;;;;;;;1.58;1.48;;;12.10;99.90;;;;;;5013589;28;20222;-69
2023/04/24 08:31:55;;;;;;;2.90;1.23;;;12.60;99.90;;;;;;5010385;28;20306;-69
2023/04/24 08:34:22;;;;;;;1.53;1.27;;;13.00;99.90;;;;;;5010313;28;20272;-69
2023/04/24 08:36:49;;;;;;;1.80;1.40;;;13.60;99.90;;;;;;5020348;28;20483;-70
2023/04/24 08:39:16;;;;;;;1.30;1.20;;;14.00;99.90;;;;;;5029589;28;20522;-69
2023/04/24 08:41:45;;;;;;;1.47;1.10;;;14.10;99.90;;;;;;5042483;28;20485;-69
2023/04/24 08:44:12;;;;;;;1.43;1.23;;;13.90;99.90;;;;;;5030877;28;20488;-69
2023/04/24 08:46:40;;;;;;;1.43;1.33;;;13.70;99.90;;;;;;5029892;28;20464;-71
2023/04/24 08:49:08;;;;;;;6.10;1.40;;;13.30;99.90;;;;;;5044319;28;20463;-70
2023/04/24 08:51:37;;;;;;;1.40;1.30;;;13.10;99.90;;;;;;5031363;28;20475;-70
2023/04/24 08:54:05;;;;;;;2.47;1.17;;;13.00;99.90;;;;;;5031713;28;20491;-70
2023/04/24 08:56:37;;;;;;;1.37;1.27;;;12.80;99.90;;;;;;5036035;28;20479;-70
2023/04/24 08:59:05;;;;;;;3.03;1.37;;;12.70;99.90;;;;;;5034176;28;20503;-70
2023/04/24 09:01:34;;;;;;;1.40;1.30;;;12.70;99.90;;;;;;5035827;28;20495;-71
2023/04/24 09:04:03;;;;;;;2.07;1.47;;;13.20;99.90;;;;;;5030608;28;21111;-70
2023/04/24 09:06:32;;;;;;;1.10;1.00;;;13.90;99.90;;;;;;5034822;28;20500;-71
2023/04/24 09:09:02;;;;;;;1.30;1.20;;;14.60;99.90;;;;;;5029068;28;20551;-70
2023/04/24 09:11:28;;;;;;;1.30;1.10;;;15.00;99.90;;;;;;5037607;28;20464;-71
2023/04/24 09:13:56;;;;;;;1.30;1.10;;;15.00;99.90;;;;;;5029082;28;20488;-70
2023/04/24 09:16:24;;;;;;;1.43;1.23;;;14.80;99.90;;;;;;5028594;28;20459;-70
2023/04/24 09:18:50;;;;;;;1.97;1.70;;;14.80;99.90;;;;;;5029807;28;20467;-71
2023/04/24 09:21:17;;;;;;;1.30;1.20;;;15.00;99.60;;;;;;5029036;28;20495;-70
2023/04/24 09:23:45;;;;;;;2.40;1.57;;;15.10;99.60;;;;;;5029006;28;20579;-71
2023/04/24 09:26:13;;;;;;;1.77;1.30;;;14.60;99.90;;;;;;5029171;28;20527;-70
2023/04/24 09:28:41;;;;;;;1.63;1.20;;;14.20;99.90;;;;;;5029252;28;20905;-70
2023/04/24 09:31:10;;;;;;;4.20;1.47;;;13.60;99.20;;;;;;5028133;28;20866;-70
2023/04/24 09:33:37;;;;;;;1.33;1.20;;;13.40;99.60;;;;;;5028157;28;20499;-70
2023/04/24 09:36:05;;;;;;;1.53;1.00;;;13.40;99.00;;;;;;5029729;28;21158;-71
2023/04/24 09:38:33;;;;;;;1.10;1.00;;;14.00;98.00;;;;;;5040693;28;20835;-70
2023/04/24 09:41:03;;;;;;;1.30;1.10;;;14.70;98.10;;;;;;5030872;28;20492;-70
2023/04/24 09:43:30;;;;;;;1.33;1.23;;;15.20;95.80;;;;;;5036228;28;20495;-70
2023/04/24 09:45:58;;;;;;;1.57;1.10;;;15.80;96.10;;;;;;5029345;28;20904;-75
2023/04/24 09:48:32;;;;;;;1.40;1.07;;;16.00;95.20;;;;;;5028900;28;20853;-70
2023/04/24 09:50:58;;;;;;;1.40;1.30;;;15.90;95.30;;;;;;5028667;28;20464;-70
2023/04/24 09:53:26;;;;;;;1.10;1.00;;;16.00;93.70;;;;;;5029367;28;20573;-70
2023/04/24 09:55:53;;;;;;;1.37;1.00;;;15.90;94.30;;;;;;5033065;28;20464;-70
2023/04/24 09:58:26;;;;;;;0.90;0.80;;;16.00;94.80;;;;;;5028180;28;20472;-70
2023/04/24 10:00:56;;;;;;;1.50;1.30;;;16.10;95.30;;;;;;5028435;28;20504;-70
2023/04/24 10:03:27;;;;;;;1.20;1.10;;;16.00;94.20;;;;;;5027896;28;20507;-70
2023/04/24 10:05:55;;;;;;;1.33;1.07;;;15.30;95.10;;;;;;5025907;28;20479;-70
2023/04/24 10:08:23;;;;;;;1.47;0.93;;;15.40;94.80;;;;;;5044196;28;20478;-70
2023/04/24 10:10:50;;;;;;;1.33;1.20;;;16.20;94.20;;;;;;5039552;28;20468;-70
2023/04/24 10:13:17;;;;;;;1.73;1.23;;;16.60;93.50;;;;;;5052018;28;20522;-70
2023/04/24 10:15:47;;;;;;;1.43;1.00;;;17.10;93.40;;;;;;5053466;28;21164;-70
2023/04/24 10:18:17;;;;;;;1.20;0.90;;;17.10;92.60;;;;;;5049856;28;20891;-70
2023/04/24 10:20:43;;;;;;;1.00;0.90;;;17.30;92.70;;;;;;5054897;28;20466;-70
2023/04/24 10:23:12;;;;;;;1.43;1.13;;;17.60;93.60;;;;;;5054179;28;20493;-70
2023/04/24 10:25:39;;;;;;;1.43;1.13;;;18.00;91.10;;;;;;5055699;28;20487;-70
2023/04/24 10:28:06;;;;;;;1.10;1.00;;;17.60;91.60;;;;;;5055192;28;20463;-70
2023/04/24 10:30:35;;;;;;;1.03;0.90;;;18.20;93.00;;;;;;5054965;28;20471;-70
2023/04/24 10:33:04;;;;;;;1.40;1.07;;;18.40;91.30;;;;;;5054763;28;20483;-70
2023/04/24 10:35:32;;;;;;;1.40;1.10;;;18.20;91.40;;;;;;5056709;28;20463;-70
2023/04/24 10:38:05;;;;;;;1.20;1.10;;;17.00;90.60;;;;;;5055752;28;20491;-70
2023/04/24 10:40:33;;;;;;;1.30;1.03;;;15.90;92.40;;;;;;5056004;28;20463;-69
2023/04/24 10:43:02;;;;;;;1.47;1.00;;;15.10;93.50;;;;;;5054251;28;20522;-70
2023/04/24 10:45:29;;;;;;;1.40;1.07;;;15.00;93.70;;;;;;5054667;28;20459;-70
2023/04/24 10:48:01;;;;;;;1.30;1.10;;;16.00;93.20;;;;;;5071068;28;20462;-70
2023/04/24 10:50:30;;;;;;;1.20;1.03;;;16.20;93.20;;;;;;5074835;28;20470;-70
2023/04/24 10:53:07;;;;;;;1.57;1.17;;;15.80;93.60;;;;;;5074226;28;20514;-70
2023/04/24 10:55:48;;;;;;;1.53;1.10;;;15.80;94.10;;;;;;5047477;28;20481;-69
2023/04/24 10:58:17;;;;;;;1.97;0.93;;;15.70;93.50;;;;;;5054907;28;20530;-70
2023/04/24 11:00:45;;;;;;;1.20;1.00;;;15.60;93.60;;;;;;5055202;28;20490;-70
2023/04/24 11:03:26;;;;;;;1.33;1.00;;;15.10;93.80;;;;;;5054169;28;20546;-70
2023/04/24 11:05:58;;;;;;;2.20;1.20;;;14.80;93.90;;;;;;5055348;28;20459;-70
2023/04/24 11:08:27;;;;;;;1.83;1.00;;;14.40;94.30;;;;;;5053732;28;20486;-70
2023/04/24 11:11:08;;;;;;;2.90;1.40;;;13.90;94.70;;;;;;5061979;28;20835;-70
2023/04/24 11:14:07;;;;;;;1.00;0.90;;;13.60;95.30;;;;;;5047257;28;20491;-70
2023/04/24 11:16:35;;;;;;;2.13;1.20;;;13.40;96.00;;;;;;4954675;28;20542;-70
2023/04/24 11:19:04;;;;;;;1.40;1.13;;;13.20;96.50;;;;;;5029300;28;20471;-69
2023/04/24 11:21:41;;;;;;;2.90;1.57;;;13.20;96.20;;;;;;5051163;28;20494;-70
2023/04/24 11:24:31;;;;;;;1.40;1.30;;;13.10;96.40;;;;;;5051379;28;20514;-70
2023/04/24 11:26:59;;;;;;;1.53;1.17;;;13.10;97.00;;;;;;5051735;28;20493;-70
2023/04/24 11:29:43;;;;;;;1.33;1.23;;;13.20;97.00;;;;;;5051759;28;20549;-70
2023/04/24 11:32:30;;;;;;;1.83;1.20;;;13.30;96.00;;;;;;5058037;28;20458;-70
2023/04/24 11:34:59;;;;;;;1.30;1.17;;;13.60;95.80;;;;;;5064345;28;20490;-69
2023/04/24 11:37:28;;;;;;;2.80;1.30;;;13.70;95.60;;;;;;5051691;28;20452;-70
2023/04/24 11:39:56;;;;;;;1.60;1.23;;;13.80;95.90;;;;;;5050810;28;20466;-69
2023/04/24 11:42:23;;;;;;;1.10;0.90;;;13.60;96.10;;;;;;5051429;28;20483;-70
2023/04/24 11:44:50;;;;;;;1.33;1.20;;;13.40;96.90;;;;;;5052765;28;20977;-70
2023/04/24 11:47:17;;;;;;;1.80;1.70;;;12.90;96.70;;;;;;5053755;28;20617;-70
2023/04/24 11:49:44;;;;;;;1.67;1.10;;;12.50;97.20;;;;;;5072634;28;20474;-70
2023/04/24 11:52:11;;;;;;;1.73;1.50;;;12.50;97.80;;;;;;5059921;28;20463;-70
2023/04/24 11:54:47;;;;;;;1.37;1.20;;;12.30;97.10;;;;;;5057947;28;20455;-69
2023/04/24 11:57:13;;;;;;;1.50;1.30;;;12.40;97.20;;;;;;5051560;28;20458;-69
2023/04/24 11:59:40;;;;;;;1.70;1.07;;;12.40;97.30;;;;;;5051858;28;20483;-70
2023/04/24 12:02:07;;;;;;;1.40;1.27;;;12.60;96.60;;;;;;5059457;28;20480;-70
2023/04/24 12:04:41;;;;;;;1.40;1.30;;;12.80;96.80;;;;;;5068327;28;20503;-70
2023/04/24 12:07:09;;;;;;;1.30;1.17;;;13.10;97.00;;;;;;5068326;28;20880;-70
2023/04/24 12:09:44;;;;;;;1.50;1.40;;;13.00;97.10;;;;;;5056437;28;20459;-70
2023/04/24 12:12:11;;;;;;;1.55;1.10;;;13.00;97.50;;;;;;5063032;28;20480;-70
2023/04/24 12:14:53;;;;;;;1.27;1.10;;;12.70;97.10;;;;;;5051067;28;20208;-70
2023/04/24 12:17:25;;;;;;;1.80;1.10;;;12.40;97.70;;;;;;5061976;28;21069;-70
2023/04/24 12:19:53;;;;;;;1.60;1.00;;;12.20;98.10;;;;;;5071863;28;20203;-70
2023/04/24 12:22:20;;;;;;;1.50;1.40;;;12.00;97.80;;;;;;5069173;28;20223;-71
2023/04/24 12:25:02;;;;;;;5.78;1.35;;;11.90;98.20;;;;;;5060402;28;20564;-70
2023/04/24 12:27:33;;;;;;;1.50;1.03;;;11.90;97.70;;;;;;5063316;28;20199;-72
2023/04/24 12:30:01;;;;;;;1.45;1.35;;;12.00;97.80;;;;;;5071523;28;20524;-70
2023/04/24 12:32:28;;;;;;;1.30;1.20;;;12.20;97.70;;;;;;5060169;28;20201;-70
2023/04/24 12:34:56;;;;;;;2.13;1.30;;;12.40;98.20;;;;;;5060238;28;20463;-70
2023/04/24 12:37:24;;;;;;;2.95;1.35;;;12.60;97.40;;;;;;5058796;28;20896;-70
2023/04/24 12:40:03;;;;;;;1.35;1.25;;;12.60;97.70;;;;;;5051487;28;20193;-70
2023/04/24 12:42:31;;;;;;;1.47;1.30;;;12.50;97.70;;;;;;5051821;28;20217;-69
2023/04/24 12:44:59;;;;;;;1.42;1.30;;;12.30;98.20;;;;;;5059828;28;20852;-70
2023/04/24 12:47:26;;;;;;;1.45;1.35;;;12.20;98.40;;;;;;5054161;28;20239;-70
2023/04/24 12:49:55;;;;;;;1.27;1.15;;;12.10;98.60;;;;;;5064880;28;20197;-70
2023/04/24 12:52:22;;;;;;;2.23;1.50;;;11.90;98.90;;;;;;5060334;28;20197;-70
2023/04/24 12:54:48;;;;;;;1.60;1.00;;;11.70;99.10;;;;;;5071388;28;20467;-70